createdAt,value
2017-06-15T00:00:42.152Z,0
2017-06-15T00:01:52.364Z,0
2017-06-15T00:03:01.897Z,0
2017-06-15T00:04:12.223Z,0
2017-06-15T00:05:22.503Z,0
2017-06-15T00:06:32.858Z,0
2017-06-15T00:07:42.702Z,0
2017-06-15T00:08:53.057Z,0
2017-06-15T00:10:05.560Z,0
2017-06-15T00:11:18.398Z,0
2017-06-15T00:12:27.356Z,0
2017-06-15T00:13:36.677Z,0
2017-06-15T00:14:45.910Z,0
2017-06-15T00:15:59.993Z,0
2017-06-15T00:17:08.948Z,0
2017-06-15T00:18:17.932Z,0
2017-06-15T00:19:26.910Z,0
2017-06-15T00:20:35.954Z,0
2017-06-15T00:21:44.908Z,0
2017-06-15T00:22:53.871Z,0
2017-06-15T00:24:02.828Z,0
2017-06-15T00:25:11.786Z,0
2017-06-15T00:26:21.070Z,0
2017-06-15T00:27:30.074Z,0
2017-06-15T00:28:39.029Z,0
2017-06-15T00:29:47.987Z,0
2017-06-15T00:30:56.942Z,0
2017-06-15T00:32:05.905Z,0
2017-06-15T00:33:14.861Z,0
2017-06-15T00:34:23.820Z,0
2017-06-15T00:35:32.777Z,0
2017-06-15T00:36:41.741Z,0
2017-06-15T00:37:51.017Z,0
2017-06-15T00:39:00.025Z,0
2017-06-15T00:40:08.983Z,0
2017-06-15T00:41:17.935Z,0
2017-06-15T00:42:26.888Z,0
2017-06-15T00:43:35.847Z,0
2017-06-15T00:44:44.802Z,0
2017-06-15T00:45:53.758Z,0
2017-06-15T00:47:02.717Z,0
2017-06-15T00:48:11.676Z,0
2017-06-15T00:49:20.723Z,0
2017-06-15T00:50:29.680Z,0
2017-06-15T00:51:38.635Z,0
2017-06-15T00:52:47.598Z,0
2017-06-15T00:53:56.553Z,0
2017-06-15T00:55:05.509Z,0
2017-06-15T00:56:14.511Z,0
2017-06-15T00:57:23.469Z,0
2017-06-15T00:58:32.425Z,0
2017-06-15T00:59:41.383Z,0
2017-06-15T01:00:50.427Z,0
2017-06-15T01:01:59.438Z,0
2017-06-15T01:03:08.397Z,0
2017-06-15T01:04:17.357Z,0
2017-06-15T01:05:26.488Z,0
2017-06-15T01:06:35.447Z,0
2017-06-15T01:07:44.406Z,0
2017-06-15T01:08:53.361Z,0
2017-06-15T01:10:02.319Z,0
2017-06-15T01:11:11.274Z,0
2017-06-15T01:12:20.228Z,0
2017-06-15T01:13:29.181Z,0
2017-06-15T01:14:38.136Z,0
2017-06-15T01:15:47.093Z,0
2017-06-15T01:16:56.046Z,0
2017-06-15T01:18:05.092Z,0
2017-06-15T01:19:14.049Z,0
2017-06-15T01:20:23.006Z,0
2017-06-15T01:21:32.050Z,0
2017-06-15T01:22:41.006Z,0
2017-06-15T01:23:49.964Z,0
2017-06-15T01:24:58.968Z,0
2017-06-15T01:26:07.926Z,0
2017-06-15T01:27:16.883Z,0
2017-06-15T01:28:25.836Z,0
2017-06-15T01:29:35.397Z,0
2017-06-15T01:30:44.403Z,0
2017-06-15T01:31:53.359Z,0
2017-06-15T01:33:02.321Z,0
2017-06-15T01:34:11.603Z,0
2017-06-15T01:35:20.557Z,0
2017-06-15T01:36:29.511Z,0
2017-06-15T01:37:38.469Z,0
2017-06-15T01:38:47.429Z,0
2017-06-15T01:39:56.388Z,0
2017-06-15T01:41:05.342Z,0
2017-06-15T01:42:14.669Z,0
2017-06-15T01:43:23.631Z,0
2017-06-15T01:44:32.636Z,0
2017-06-15T01:45:41.589Z,0
2017-06-15T01:46:50.544Z,0
2017-06-15T01:47:59.558Z,0
2017-06-15T01:49:08.515Z,0
2017-06-15T01:50:17.475Z,0
2017-06-15T01:51:26.434Z,0
2017-06-15T01:52:35.395Z,0
2017-06-15T01:53:44.345Z,0
2017-06-15T01:54:53.299Z,0
2017-06-15T01:56:02.253Z,0
2017-06-15T01:57:11.208Z,0
2017-06-15T01:58:20.164Z,0
2017-06-15T01:59:29.118Z,0
2017-06-15T02:00:38.074Z,0
2017-06-15T02:01:47.030Z,0
2017-06-15T02:02:55.982Z,0
2017-06-15T02:04:04.936Z,0
2017-06-15T02:05:13.945Z,0
2017-06-15T02:06:22.902Z,0
2017-06-15T02:07:31.857Z,0
2017-06-15T02:08:40.811Z,0
2017-06-15T02:09:49.769Z,0
2017-06-15T02:10:58.725Z,0
2017-06-15T02:12:07.678Z,4
2017-06-15T02:13:16.649Z,4
2017-06-15T02:14:25.612Z,4
2017-06-15T02:15:34.900Z,0
2017-06-15T02:16:43.858Z,0
2017-06-15T02:17:53.133Z,0
2017-06-15T02:19:02.084Z,4
2017-06-15T02:20:11.039Z,4
2017-06-15T02:21:19.992Z,0
2017-06-15T02:22:29.001Z,4
2017-06-15T02:23:37.959Z,4
2017-06-15T02:24:46.914Z,4
2017-06-15T02:25:55.868Z,4
2017-06-15T02:27:04.905Z,4
2017-06-15T02:28:13.909Z,8
2017-06-15T02:29:22.866Z,8
2017-06-15T02:30:31.822Z,4
2017-06-15T02:31:40.782Z,8
2017-06-15T02:32:49.733Z,8
2017-06-15T02:33:58.738Z,12
2017-06-15T02:35:07.695Z,12
2017-06-15T02:36:16.650Z,12
2017-06-15T02:37:25.602Z,16
2017-06-15T02:38:34.561Z,12
2017-06-15T02:39:43.518Z,16
2017-06-15T02:40:52.473Z,16
2017-06-15T02:42:01.429Z,20
2017-06-15T02:43:10.387Z,20
2017-06-15T02:44:19.342Z,20
2017-06-15T02:45:28.302Z,24
2017-06-15T02:46:37.259Z,24
2017-06-15T02:47:46.214Z,28
2017-06-15T02:48:55.166Z,28
2017-06-15T02:50:04.120Z,28
2017-06-15T02:51:13.127Z,32
2017-06-15T02:52:22.084Z,32
2017-06-15T02:53:31.040Z,32
2017-06-15T02:54:39.992Z,36
2017-06-15T02:55:48.944Z,36
2017-06-15T02:56:57.951Z,40
2017-06-15T02:58:07.088Z,44
2017-06-15T02:59:16.046Z,48
2017-06-15T03:00:24.997Z,52
2017-06-15T03:01:34.040Z,52
2017-06-15T03:02:42.993Z,56
2017-06-15T03:03:51.948Z,56
2017-06-15T03:05:00.943Z,60
2017-06-15T03:06:09.905Z,64
2017-06-15T03:07:18.862Z,64
2017-06-15T03:08:27.815Z,68
2017-06-15T03:09:36.771Z,68
2017-06-15T03:10:45.727Z,72
2017-06-15T03:11:54.687Z,76
2017-06-15T03:13:03.641Z,80
2017-06-15T03:14:12.733Z,84
2017-06-15T03:15:21.686Z,88
2017-06-15T03:16:30.642Z,88
2017-06-15T03:17:39.597Z,96
2017-06-15T03:18:48.876Z,100
2017-06-15T03:19:57.833Z,104
2017-06-15T03:21:06.789Z,108
2017-06-15T03:22:15.828Z,112
2017-06-15T03:23:24.782Z,116
2017-06-15T03:24:33.736Z,120
2017-06-15T03:25:42.746Z,124
2017-06-15T03:26:51.702Z,128
2017-06-15T03:28:00.659Z,132
2017-06-15T03:29:09.705Z,136
2017-06-15T03:30:18.662Z,140
2017-06-15T03:31:27.672Z,144
2017-06-15T03:32:36.628Z,148
2017-06-15T03:33:45.670Z,152
2017-06-15T03:34:54.625Z,160
2017-06-15T03:36:03.579Z,164
2017-06-15T03:37:12.622Z,180
2017-06-15T03:38:21.583Z,196
2017-06-15T03:39:30.543Z,224
2017-06-15T03:40:39.498Z,236
2017-06-15T03:41:48.454Z,244
2017-06-15T03:42:57.495Z,236
2017-06-15T03:44:06.451Z,240
2017-06-15T03:45:15.407Z,260
2017-06-15T03:46:24.361Z,280
2017-06-15T03:47:33.315Z,300
2017-06-15T03:48:42.316Z,324
2017-06-15T03:49:51.273Z,316
2017-06-15T03:51:00.229Z,324
2017-06-15T03:52:09.271Z,336
2017-06-15T03:53:18.223Z,352
2017-06-15T03:54:27.225Z,368
2017-06-15T03:55:36.502Z,380
2017-06-15T03:56:45.460Z,396
2017-06-15T03:57:54.742Z,392
2017-06-15T03:59:03.699Z,380
2017-06-15T04:00:12.660Z,356
2017-06-15T04:01:21.614Z,348
2017-06-15T04:02:30.655Z,352
2017-06-15T04:03:39.613Z,356
2017-06-15T04:04:48.571Z,364
2017-06-15T04:05:57.525Z,380
2017-06-15T04:07:06.478Z,384
2017-06-15T04:08:15.428Z,384
2017-06-15T04:09:24.389Z,408
2017-06-15T04:10:33.666Z,432
2017-06-15T04:11:42.621Z,452
2017-06-15T04:12:51.590Z,460
2017-06-15T04:14:00.544Z,468
2017-06-15T04:15:09.587Z,460
2017-06-15T04:16:18.545Z,480
2017-06-15T04:17:27.586Z,512
2017-06-15T04:18:36.544Z,552
2017-06-15T04:19:45.493Z,580
2017-06-15T04:20:54.539Z,588
2017-06-15T04:22:03.495Z,576
2017-06-15T04:23:12.499Z,556
2017-06-15T04:24:21.453Z,548
2017-06-15T04:25:30.437Z,556
2017-06-15T04:26:39.392Z,564
2017-06-15T04:27:48.350Z,592
2017-06-15T04:28:57.301Z,612
2017-06-15T04:30:06.261Z,640
2017-06-15T04:31:15.218Z,608
2017-06-15T04:32:24.173Z,600
2017-06-15T04:33:33.218Z,632
2017-06-15T04:34:42.228Z,604
2017-06-15T04:35:51.188Z,612
2017-06-15T04:37:00.144Z,584
2017-06-15T04:38:09.110Z,640
2017-06-15T04:39:18.064Z,648
2017-06-15T04:40:27.024Z,608
2017-06-15T04:41:35.980Z,536
2017-06-15T04:42:44.937Z,424
2017-06-15T04:43:53.895Z,324
2017-06-15T04:45:02.851Z,296
2017-06-15T04:46:11.866Z,304
2017-06-15T04:47:20.822Z,376
2017-06-15T04:48:30.106Z,408
2017-06-15T04:49:39.062Z,404
2017-06-15T04:50:48.021Z,400
2017-06-15T04:51:57.027Z,400
2017-06-15T04:53:05.983Z,404
2017-06-15T04:54:14.939Z,404
2017-06-15T04:55:23.984Z,404
2017-06-15T04:56:32.940Z,412
2017-06-15T04:57:41.894Z,404
2017-06-15T04:58:50.848Z,412
2017-06-15T04:59:59.819Z,424
2017-06-15T05:01:08.772Z,432
2017-06-15T05:02:17.742Z,436
2017-06-15T05:03:26.844Z,444
2017-06-15T05:04:35.797Z,448
2017-06-15T05:05:44.749Z,460
2017-06-15T05:06:53.705Z,464
2017-06-15T05:08:02.987Z,468
2017-06-15T05:09:11.995Z,468
2017-06-15T05:10:20.953Z,480
2017-06-15T05:11:29.907Z,480
2017-06-15T05:12:38.951Z,496
2017-06-15T05:13:47.902Z,508
2017-06-15T05:14:56.863Z,500
2017-06-15T05:16:05.815Z,496
2017-06-15T05:17:14.768Z,500
2017-06-15T05:18:23.726Z,504
2017-06-15T05:19:32.684Z,496
2017-06-15T05:20:41.691Z,500
2017-06-15T05:21:50.649Z,504
2017-06-15T05:22:59.605Z,516
2017-06-15T05:24:08.563Z,516
2017-06-15T05:25:17.610Z,532
2017-06-15T05:26:26.566Z,544
2017-06-15T05:27:35.528Z,548
2017-06-15T05:28:44.490Z,560
2017-06-15T05:29:53.448Z,572
2017-06-15T05:31:02.404Z,584
2017-06-15T05:32:11.367Z,592
2017-06-15T05:33:20.329Z,604
2017-06-15T05:34:29.290Z,600
2017-06-15T05:35:38.247Z,608
2017-06-15T05:36:47.203Z,616
2017-06-15T05:37:56.162Z,612
2017-06-15T05:39:05.124Z,608
2017-06-15T05:40:14.087Z,600
2017-06-15T05:41:23.047Z,616
2017-06-15T05:42:32.061Z,624
2017-06-15T05:43:41.018Z,632
2017-06-15T05:44:49.976Z,644
2017-06-15T05:45:58.933Z,652
2017-06-15T05:47:07.891Z,672
2017-06-15T05:48:16.850Z,684
2017-06-15T05:49:25.858Z,668
2017-06-15T05:50:35.159Z,704
2017-06-15T05:51:44.119Z,728
2017-06-15T05:52:53.075Z,804
2017-06-15T05:54:02.122Z,812
2017-06-15T05:55:11.226Z,804
2017-06-15T05:56:20.192Z,788
2017-06-15T05:57:29.155Z,784
2017-06-15T05:58:38.201Z,788
2017-06-15T05:59:47.271Z,784
2017-06-15T06:00:56.314Z,808
2017-06-15T06:02:05.399Z,828
2017-06-15T06:03:15.070Z,832
2017-06-15T06:04:24.031Z,856
2017-06-15T06:05:33.003Z,868
2017-06-15T06:06:42.165Z,848
2017-06-15T06:07:51.160Z,852
2017-06-15T06:09:00.211Z,844
2017-06-15T06:10:09.602Z,812
2017-06-15T06:11:18.597Z,816
2017-06-15T06:12:27.647Z,824
2017-06-15T06:13:36.604Z,796
2017-06-15T06:14:45.556Z,784
2017-06-15T06:15:54.511Z,836
2017-06-15T06:17:03.472Z,876
2017-06-15T06:18:12.481Z,888
2017-06-15T06:19:21.442Z,928
2017-06-15T06:20:30.396Z,1008
2017-06-15T06:21:39.500Z,1112
2017-06-15T06:22:48.534Z,1244
2017-06-15T06:23:57.576Z,1420
2017-06-15T06:25:06.573Z,1352
2017-06-15T06:26:15.638Z,1040
2017-06-15T06:27:24.982Z,876
2017-06-15T06:28:34.130Z,884
2017-06-15T06:29:43.358Z,892
2017-06-15T06:30:52.315Z,916
2017-06-15T06:32:01.304Z,924
2017-06-15T06:33:10.929Z,928
2017-06-15T06:34:19.954Z,948
2017-06-15T06:35:29.109Z,960
2017-06-15T06:36:38.154Z,968
2017-06-15T06:37:47.147Z,984
2017-06-15T06:38:56.223Z,1020
2017-06-15T06:40:05.181Z,1032
2017-06-15T06:41:14.135Z,1036
2017-06-15T06:42:23.091Z,1056
2017-06-15T06:43:32.115Z,1048
2017-06-15T06:44:41.071Z,1032
2017-06-15T06:45:50.152Z,1048
2017-06-15T06:46:59.166Z,1060
2017-06-15T06:48:08.212Z,1064
2017-06-15T06:49:17.360Z,1100
2017-06-15T06:50:26.466Z,1160
2017-06-15T06:51:35.529Z,1176
2017-06-15T06:52:44.621Z,1160
2017-06-15T06:53:53.656Z,1156
2017-06-15T06:55:02.715Z,1228
2017-06-15T06:56:11.901Z,1288
2017-06-15T06:57:20.860Z,1240
2017-06-15T06:58:29.907Z,1204
2017-06-15T06:59:38.902Z,1284
2017-06-15T07:00:47.859Z,1280
2017-06-15T07:01:57.014Z,1272
2017-06-15T07:03:06.087Z,1264
2017-06-15T07:04:15.223Z,1268
2017-06-15T07:05:24.183Z,1300
2017-06-15T07:06:33.380Z,1308
2017-06-15T07:07:42.365Z,1300
2017-06-15T07:08:51.389Z,1288
2017-06-15T07:10:00.926Z,1292
2017-06-15T07:11:09.976Z,1292
2017-06-15T07:12:18.965Z,1320
2017-06-15T07:13:28.077Z,1316
2017-06-15T07:14:37.041Z,1272
2017-06-15T07:15:45.997Z,1292
2017-06-15T07:16:55.281Z,1308
2017-06-15T07:18:04.241Z,1280
2017-06-15T07:19:13.199Z,1308
2017-06-15T07:20:22.154Z,1356
2017-06-15T07:21:31.111Z,1432
2017-06-15T07:22:42.880Z,1536
2017-06-15T07:23:52.214Z,1608
2017-06-15T07:25:01.508Z,1692
2017-06-15T07:26:10.464Z,1628
2017-06-15T07:27:19.426Z,1672
2017-06-15T07:28:28.392Z,1656
2017-06-15T07:29:37.355Z,1648
2017-06-15T07:30:46.401Z,1652
2017-06-15T07:31:55.362Z,1540
2017-06-15T07:33:04.372Z,1580
2017-06-15T07:34:13.332Z,1600
2017-06-15T07:35:22.294Z,1640
2017-06-15T07:36:31.254Z,1676
2017-06-15T07:37:40.210Z,1744
2017-06-15T07:38:49.172Z,1800
2017-06-15T07:39:58.128Z,1840
2017-06-15T07:41:07.092Z,1836
2017-06-15T07:42:16.048Z,1760
2017-06-15T07:43:25.011Z,1804
2017-06-15T07:44:33.976Z,1768
2017-06-15T07:45:42.930Z,1792
2017-06-15T07:46:51.896Z,1776
2017-06-15T07:48:00.855Z,1760
2017-06-15T07:49:09.815Z,1744
2017-06-15T07:50:18.776Z,1712
2017-06-15T07:51:27.739Z,1724
2017-06-15T07:52:36.699Z,1700
2017-06-15T07:53:45.676Z,1688
2017-06-15T07:54:54.639Z,1680
2017-06-15T07:56:03.602Z,1716
2017-06-15T07:57:12.566Z,1800
2017-06-15T07:58:21.527Z,1672
2017-06-15T07:59:30.811Z,1656
2017-06-15T08:00:39.774Z,1728
2017-06-15T08:01:48.736Z,1836
2017-06-15T08:02:57.702Z,1808
2017-06-15T08:04:06.664Z,1676
2017-06-15T08:05:15.625Z,1684
2017-06-15T08:06:24.675Z,1696
2017-06-15T08:07:33.771Z,1708
2017-06-15T08:08:42.733Z,1732
2017-06-15T08:09:51.692Z,1768
2017-06-15T08:11:00.737Z,1828
2017-06-15T08:12:09.709Z,1900
2017-06-15T08:13:18.673Z,1996
2017-06-15T08:14:27.631Z,1868
2017-06-15T08:15:36.594Z,1752
2017-06-15T08:16:45.557Z,1940
2017-06-15T08:17:54.523Z,1968
2017-06-15T08:19:03.515Z,1928
2017-06-15T08:20:12.559Z,1812
2017-06-15T08:21:21.851Z,1788
2017-06-15T08:22:30.814Z,1684
2017-06-15T08:23:39.776Z,1768
2017-06-15T08:24:48.732Z,1812
2017-06-15T08:25:57.696Z,1860
2017-06-15T08:27:06.656Z,1896
2017-06-15T08:28:15.615Z,1928
2017-06-15T08:29:24.572Z,1976
2017-06-15T08:30:33.583Z,2092
2017-06-15T08:31:42.547Z,2216
2017-06-15T08:32:51.534Z,2236
2017-06-15T08:34:00.515Z,2080
2017-06-15T08:35:09.497Z,2132
2017-06-15T08:36:18.535Z,2212
2017-06-15T08:37:27.520Z,2312
2017-06-15T08:38:36.504Z,2340
2017-06-15T08:39:45.491Z,2320
2017-06-15T08:40:54.814Z,2264
2017-06-15T08:42:04.195Z,2304
2017-06-15T08:43:13.167Z,2392
2017-06-15T08:44:22.130Z,2504
2017-06-15T08:45:31.094Z,2580
2017-06-15T08:46:40.079Z,2628
2017-06-15T08:47:49.059Z,2820
2017-06-15T08:48:58.044Z,2824
2017-06-15T08:50:07.037Z,2916
2017-06-15T08:51:16.023Z,3032
2017-06-15T08:52:25.050Z,3080
2017-06-15T08:53:34.085Z,2908
2017-06-15T08:54:43.066Z,3052
2017-06-15T08:55:52.048Z,3264
2017-06-15T08:57:01.037Z,3424
2017-06-15T08:58:10.050Z,3492
2017-06-15T08:59:19.088Z,3488
2017-06-15T09:00:28.070Z,3412
2017-06-15T09:01:37.054Z,3164
2017-06-15T09:02:46.043Z,3080
2017-06-15T09:03:55.060Z,2888
2017-06-15T09:05:04.092Z,2964
2017-06-15T09:06:13.073Z,2956
2017-06-15T09:07:22.051Z,2832
2017-06-15T09:08:31.042Z,3012
2017-06-15T09:09:40.122Z,3024
2017-06-15T09:10:49.160Z,2976
2017-06-15T09:11:58.138Z,2880
2017-06-15T09:13:07.124Z,2900
2017-06-15T09:14:16.110Z,2868
2017-06-15T09:15:25.113Z,2796
2017-06-15T09:16:34.163Z,2736
2017-06-15T09:17:43.156Z,2628
2017-06-15T09:18:52.139Z,2376
2017-06-15T09:20:01.155Z,2476
2017-06-15T09:21:10.163Z,2392
2017-06-15T09:22:19.147Z,2300
2017-06-15T09:23:28.131Z,2240
2017-06-15T09:24:37.110Z,2200
2017-06-15T09:25:46.098Z,2192
2017-06-15T09:26:55.080Z,2096
2017-06-15T09:28:04.112Z,1944
2017-06-15T09:29:13.179Z,1896
2017-06-15T09:30:22.149Z,1896
2017-06-15T09:31:31.113Z,1864
2017-06-15T09:32:40.074Z,1824
2017-06-15T09:33:49.032Z,1896
2017-06-15T09:34:57.991Z,1880
2017-06-15T09:36:07.026Z,1816
2017-06-15T09:37:15.986Z,1812
2017-06-15T09:38:24.958Z,1780
2017-06-15T09:39:33.973Z,1776
2017-06-15T09:40:42.938Z,1756
2017-06-15T09:41:52.784Z,1752
2017-06-15T09:43:01.751Z,1844
2017-06-15T09:44:10.715Z,1876
2017-06-15T09:45:19.768Z,1888
2017-06-15T09:46:28.730Z,1912
2017-06-15T09:47:38.012Z,1876
2017-06-15T09:48:46.993Z,1948
2017-06-15T09:49:55.958Z,1892
2017-06-15T09:51:04.969Z,1884
2017-06-15T09:52:13.932Z,1888
2017-06-15T09:53:22.984Z,1840
2017-06-15T09:54:32.268Z,1848
2017-06-15T09:55:41.229Z,1908
2017-06-15T09:56:50.202Z,1892
2017-06-15T09:57:59.482Z,1880
2017-06-15T09:59:08.448Z,1852
2017-06-15T10:00:17.411Z,1832
2017-06-15T10:01:26.377Z,1804
2017-06-15T10:02:35.418Z,1808
2017-06-15T10:03:44.380Z,1828
2017-06-15T10:04:53.510Z,1808
2017-06-15T10:06:02.472Z,1828
2017-06-15T10:07:11.525Z,1876
2017-06-15T10:08:20.537Z,1864
2017-06-15T10:09:29.820Z,1844
2017-06-15T10:10:38.780Z,1832
2017-06-15T10:11:47.745Z,1848
2017-06-15T10:12:56.716Z,1852
2017-06-15T10:14:05.726Z,1896
2017-06-15T10:15:14.693Z,1900
2017-06-15T10:16:23.661Z,1912
2017-06-15T10:17:32.624Z,1916
2017-06-15T10:18:41.586Z,1972
2017-06-15T10:19:50.603Z,1992
2017-06-15T10:20:59.563Z,2020
2017-06-15T10:22:08.526Z,2024
2017-06-15T10:23:17.488Z,1976
2017-06-15T10:24:26.442Z,1996
2017-06-15T10:25:35.402Z,2148
2017-06-15T10:26:44.364Z,1964
2017-06-15T10:27:53.324Z,1960
2017-06-15T10:29:02.286Z,1904
2017-06-15T10:30:11.249Z,1860
2017-06-15T10:31:20.212Z,1836
2017-06-15T10:32:29.172Z,1836
2017-06-15T10:33:38.131Z,1792
2017-06-15T10:34:47.090Z,1800
2017-06-15T10:35:56.052Z,1812
2017-06-15T10:37:05.150Z,1740
2017-06-15T10:38:14.432Z,1736
2017-06-15T10:39:23.393Z,1716
2017-06-15T10:40:32.673Z,1704
2017-06-15T10:41:41.631Z,1684
2017-06-15T10:42:51.283Z,1672
2017-06-15T10:44:00.245Z,1648
2017-06-15T10:45:09.208Z,1636
2017-06-15T10:46:18.169Z,1644
2017-06-15T10:47:27.130Z,1592
2017-06-15T10:48:36.143Z,1584
2017-06-15T10:49:45.104Z,1580
2017-06-15T10:50:54.155Z,1592
2017-06-15T10:52:03.122Z,1608
2017-06-15T10:53:12.089Z,1604
2017-06-15T10:54:21.416Z,1620
2017-06-15T10:55:31.600Z,1632
2017-06-15T10:56:40.567Z,1596
2017-06-15T10:57:49.529Z,1548
2017-06-15T10:58:58.494Z,1540
2017-06-15T11:00:07.457Z,1496
2017-06-15T11:01:16.502Z,1448
2017-06-15T11:02:25.465Z,1460
2017-06-15T11:03:34.426Z,1600
2017-06-15T11:04:43.387Z,1536
2017-06-15T11:05:52.687Z,1492
2017-06-15T11:07:01.654Z,1492
2017-06-15T11:08:10.617Z,1492
2017-06-15T11:09:19.669Z,1512
2017-06-15T11:10:28.631Z,1512
2017-06-15T11:11:37.727Z,1484
2017-06-15T11:12:46.688Z,1432
2017-06-15T11:13:55.647Z,1404
2017-06-15T11:15:04.604Z,1448
2017-06-15T11:16:13.566Z,1456
2017-06-15T11:17:22.526Z,1540
2017-06-15T11:18:31.484Z,1580
2017-06-15T11:19:40.444Z,1656
2017-06-15T11:20:49.407Z,1724
2017-06-15T11:21:58.370Z,1728
2017-06-15T11:23:07.337Z,1696
2017-06-15T11:24:16.386Z,1684
2017-06-15T11:25:25.355Z,1644
2017-06-15T11:26:34.319Z,1704
2017-06-15T11:27:43.376Z,1708
2017-06-15T11:28:52.671Z,1732
2017-06-15T11:30:01.628Z,1684
2017-06-15T11:31:10.618Z,1644
2017-06-15T11:32:19.582Z,1664
2017-06-15T11:33:28.546Z,1588
2017-06-15T11:34:37.554Z,1576
2017-06-15T11:35:46.606Z,1612
2017-06-15T11:36:55.574Z,1600
2017-06-15T11:38:04.531Z,1560
2017-06-15T11:39:13.493Z,1624
2017-06-15T11:40:22.553Z,1700
2017-06-15T11:41:31.607Z,1704
2017-06-15T11:42:40.568Z,1608
2017-06-15T11:43:49.533Z,1640
2017-06-15T11:44:58.672Z,1688
2017-06-15T11:46:07.721Z,1660
2017-06-15T11:47:16.679Z,1604
2017-06-15T11:48:25.639Z,1568
2017-06-15T11:49:34.599Z,1488
2017-06-15T11:50:43.565Z,1428
2017-06-15T11:51:52.531Z,1448
2017-06-15T11:53:01.494Z,1644
2017-06-15T11:54:10.457Z,1600
2017-06-15T11:55:19.418Z,1840
2017-06-15T11:56:28.378Z,1684
2017-06-15T11:57:37.482Z,1584
2017-06-15T11:58:46.444Z,1516
2017-06-15T11:59:56.709Z,1528
2017-06-15T12:01:05.675Z,1528
2017-06-15T12:02:14.640Z,1536
2017-06-15T12:03:23.604Z,1524
2017-06-15T12:04:32.562Z,1440
2017-06-15T12:05:41.639Z,1380
2017-06-15T12:06:50.647Z,1380
2017-06-15T12:07:59.610Z,1416
2017-06-15T12:09:08.585Z,1412
2017-06-15T12:10:17.560Z,1396
2017-06-15T12:11:26.854Z,1364
2017-06-15T12:12:35.825Z,1384
2017-06-15T12:13:44.807Z,1400
2017-06-15T12:14:53.924Z,1400
2017-06-15T12:16:02.885Z,1352
2017-06-15T12:17:11.843Z,1380
2017-06-15T12:18:20.892Z,1392
2017-06-15T12:19:29.858Z,1392
2017-06-15T12:20:46.438Z,1368
2017-06-15T12:22:09.469Z,1364
2017-06-15T12:23:23.374Z,1364
2017-06-15T12:24:32.452Z,1356
2017-06-15T12:25:41.732Z,1380
2017-06-15T12:26:51.061Z,1372
2017-06-15T12:28:00.134Z,1340
2017-06-15T12:29:09.406Z,1348
2017-06-15T12:30:18.816Z,1352
2017-06-15T12:31:27.996Z,1340
2017-06-15T12:32:37.108Z,1448
2017-06-15T12:33:46.080Z,1444
2017-06-15T12:34:55.084Z,1424
2017-06-15T12:36:04.179Z,1428
2017-06-15T12:37:13.228Z,1432
2017-06-15T12:38:22.202Z,1468
2017-06-15T12:39:31.198Z,1480
2017-06-15T12:40:40.174Z,1500
2017-06-15T12:41:49.221Z,1468
2017-06-15T12:42:58.223Z,1488
2017-06-15T12:44:07.344Z,1540
2017-06-15T12:45:16.315Z,1584
2017-06-15T12:46:25.274Z,1636
2017-06-15T12:47:34.275Z,1660
2017-06-15T12:48:43.466Z,1632
2017-06-15T12:49:52.589Z,1672
2017-06-15T12:51:01.554Z,1684
2017-06-15T12:52:11.116Z,1664
2017-06-15T12:53:20.105Z,1664
2017-06-15T12:54:29.082Z,1728
2017-06-15T12:55:38.065Z,1664
2017-06-15T12:56:47.181Z,1660
2017-06-15T12:57:56.143Z,1680
2017-06-15T12:59:05.109Z,1688
2017-06-15T13:00:14.071Z,1672
2017-06-15T13:01:23.034Z,1692
2017-06-15T13:02:31.997Z,1660
2017-06-15T13:03:40.961Z,1692
2017-06-15T13:04:50.335Z,1676
2017-06-15T13:05:59.386Z,1700
2017-06-15T13:07:08.520Z,1704
2017-06-15T13:08:17.562Z,1688
2017-06-15T13:09:26.529Z,1764
2017-06-15T13:10:35.640Z,1760
2017-06-15T13:11:44.600Z,1836
2017-06-15T13:12:53.558Z,1880
2017-06-15T13:14:02.544Z,1920
2017-06-15T13:15:11.538Z,1952
2017-06-15T13:16:20.504Z,1952
2017-06-15T13:17:29.469Z,1944
2017-06-15T13:18:38.537Z,1964
2017-06-15T13:19:47.823Z,1960
2017-06-15T13:20:56.886Z,2116
2017-06-15T13:22:05.963Z,2088
2017-06-15T13:23:15.232Z,2152
2017-06-15T13:24:24.396Z,2040
2017-06-15T13:25:33.840Z,1976
2017-06-15T13:26:42.908Z,1948
2017-06-15T13:27:51.866Z,1908
2017-06-15T13:29:00.980Z,1820
2017-06-15T13:30:10.063Z,1808
2017-06-15T13:31:19.208Z,1772
2017-06-15T13:32:28.413Z,1748
2017-06-15T13:33:37.404Z,1716
2017-06-15T13:34:46.444Z,1704
2017-06-15T13:35:55.516Z,1652
2017-06-15T13:37:04.593Z,1660
2017-06-15T13:38:13.627Z,1656
2017-06-15T13:39:22.718Z,1668
2017-06-15T13:40:31.681Z,1700
2017-06-15T13:41:40.653Z,1748
2017-06-15T13:42:49.679Z,1708
2017-06-15T13:43:58.691Z,1724
2017-06-15T13:45:07.746Z,1700
2017-06-15T13:46:16.713Z,1708
2017-06-15T13:47:25.803Z,1768
2017-06-15T13:48:34.824Z,1752
2017-06-15T13:49:43.911Z,1700
2017-06-15T13:50:53.213Z,1712
2017-06-15T13:52:02.616Z,1744
2017-06-15T13:53:11.658Z,1692
2017-06-15T13:54:20.625Z,1668
2017-06-15T13:55:29.583Z,1680
2017-06-15T13:56:38.633Z,1656
2017-06-15T13:57:47.623Z,1596
2017-06-15T13:58:56.922Z,1492
2017-06-15T14:00:05.884Z,1504
2017-06-15T14:01:14.915Z,1476
2017-06-15T14:02:23.963Z,1468
2017-06-15T14:03:32.924Z,1424
2017-06-15T14:04:42.061Z,1468
2017-06-15T14:05:51.024Z,1464
2017-06-15T14:06:59.993Z,1504
2017-06-15T14:08:08.957Z,1508
2017-06-15T14:09:17.920Z,1504
2017-06-15T14:10:26.888Z,1468
2017-06-15T14:11:35.850Z,1436
2017-06-15T14:12:44.846Z,1428
2017-06-15T14:13:53.810Z,1420
2017-06-15T14:15:02.776Z,1436
2017-06-15T14:16:11.740Z,1396
2017-06-15T14:17:20.701Z,1456
2017-06-15T14:18:29.671Z,1444
2017-06-15T14:19:38.637Z,1480
2017-06-15T14:20:47.777Z,1452
2017-06-15T14:21:57.111Z,1464
2017-06-15T14:23:06.158Z,1400
2017-06-15T14:24:15.160Z,1392
2017-06-15T14:25:24.220Z,1388
2017-06-15T14:26:33.206Z,1424
2017-06-15T14:27:42.165Z,1416
2017-06-15T14:28:51.131Z,1352
2017-06-15T14:30:00.181Z,1308
2017-06-15T14:31:09.148Z,1364
2017-06-15T14:32:18.109Z,1268
2017-06-15T14:33:27.074Z,1232
2017-06-15T14:34:36.131Z,1144
2017-06-15T14:35:45.093Z,1216
2017-06-15T14:36:54.196Z,1236
2017-06-15T14:38:03.163Z,1180
2017-06-15T14:39:12.280Z,1256
2017-06-15T14:40:21.369Z,1240
2017-06-15T14:41:30.475Z,1248
2017-06-15T14:42:39.492Z,1280
2017-06-15T14:43:48.457Z,1328
2017-06-15T14:44:57.417Z,1344
2017-06-15T14:46:06.379Z,1352
2017-06-15T14:47:15.345Z,1332
2017-06-15T14:48:24.311Z,1348
2017-06-15T14:49:33.292Z,1288
2017-06-15T14:50:42.252Z,1240
2017-06-15T14:51:51.397Z,1252
2017-06-15T14:53:00.441Z,864
2017-06-15T14:54:09.455Z,924
2017-06-15T14:55:18.420Z,1176
2017-06-15T14:56:27.389Z,1288
2017-06-15T14:57:36.352Z,1424
2017-06-15T14:58:45.318Z,1468
2017-06-15T14:59:54.279Z,1444
2017-06-15T15:01:03.242Z,1224
2017-06-15T15:02:12.205Z,1228
2017-06-15T15:03:21.163Z,992
2017-06-15T15:04:30.450Z,1312
2017-06-15T15:05:39.465Z,1120
2017-06-15T15:06:48.428Z,1256
2017-06-15T15:07:57.396Z,1256
2017-06-15T15:09:06.356Z,1252
2017-06-15T15:10:15.354Z,1256
2017-06-15T15:11:24.320Z,1296
2017-06-15T15:12:33.285Z,1352
2017-06-15T15:13:42.245Z,1280
2017-06-15T15:14:51.206Z,1212
2017-06-15T15:16:00.166Z,1160
2017-06-15T15:17:09.185Z,1148
2017-06-15T15:18:18.145Z,1072
2017-06-15T15:19:27.107Z,1016
2017-06-15T15:20:36.087Z,932
2017-06-15T15:21:45.052Z,872
2017-06-15T15:22:54.192Z,832
2017-06-15T15:24:03.453Z,840
2017-06-15T15:25:12.481Z,848
2017-06-15T15:26:21.565Z,888
2017-06-15T15:27:30.605Z,896
2017-06-15T15:28:39.576Z,892
2017-06-15T15:29:48.600Z,912
2017-06-15T15:30:57.713Z,940
2017-06-15T15:32:06.703Z,964
2017-06-15T15:33:15.883Z,1016
2017-06-15T15:34:24.864Z,1008
2017-06-15T15:35:34.115Z,992
2017-06-15T15:36:43.267Z,992
2017-06-15T15:37:52.355Z,996
2017-06-15T15:39:01.317Z,972
2017-06-15T15:40:10.281Z,952
2017-06-15T15:41:19.244Z,924
2017-06-15T15:42:28.207Z,912
2017-06-15T15:43:37.177Z,912
2017-06-15T15:44:46.139Z,900